createdAt,value
2023-04-01T00:08:13.929Z,97556.10
2023-04-01T00:18:19.808Z,97550.91
2023-04-01T00:28:25.482Z,97556.61
2023-04-01T00:38:31.232Z,97559.01
2023-04-01T00:48:41.879Z,97558.24
2023-04-01T00:58:52.870Z,97548.28
2023-04-01T01:09:18.624Z,97535.27
2023-04-01T01:19:49.404Z,97522.45
2023-04-01T01:30:36.919Z,97528.36
2023-04-01T01:40:46.483Z,97530.95
2023-04-01T01:50:53.154Z,97532.67
2023-04-01T02:01:02.117Z,97531.34
2023-04-01T02:11:10.887Z,97522.64
2023-04-01T02:21:17.541Z,97526.77
2023-04-01T02:31:25.132Z,97528.11
2023-04-01T02:41:31.170Z,97531.59
2023-04-01T02:51:37.308Z,97535.80
2023-04-01T03:01:43.153Z,97539.73
2023-04-01T03:11:48.808Z,97541.38
2023-04-01T03:21:54.600Z,97543.98
2023-04-01T03:32:00.476Z,97545.35
2023-04-01T03:42:07.683Z,97549.39
2023-04-01T03:52:14.504Z,97555.41
2023-04-01T04:02:20.772Z,97567.23
2023-04-01T04:12:26.578Z,97575.02
2023-04-01T04:22:32.286Z,97573.44
2023-04-01T04:32:38.403Z,97582.88
2023-04-01T04:42:44.238Z,97579.23
2023-04-01T04:52:49.931Z,97580.30
2023-04-01T05:02:56.253Z,97579.53
2023-04-01T05:13:02.282Z,97577.26
2023-04-01T05:23:08.177Z,97580.81
2023-04-01T05:33:15.771Z,97579.68
2023-04-01T05:43:19.982Z,97574.17
2023-04-01T05:53:25.872Z,97582.52
2023-04-01T06:03:31.697Z,97583.13
2023-04-01T06:13:55.764Z,97576.33
2023-04-01T06:24:14.105Z,97583.41
2023-04-01T06:34:42.775Z,97588.35
2023-04-01T06:45:01.446Z,97589.13
2023-04-01T06:55:23.059Z,97585.96
2023-04-01T07:05:33.677Z,97592.88
2023-04-01T07:15:43.204Z,97599.06
2023-04-01T07:25:54.121Z,97598.76
2023-04-01T07:36:05.326Z,97598.98
2023-04-01T07:46:24.248Z,97602.29
2023-04-01T07:56:38.726Z,97606.45
2023-04-01T08:06:53.586Z,97606.82
2023-04-01T08:17:04.708Z,97609.80
2023-04-01T08:27:22.885Z,97611.61
2023-04-01T08:37:32.417Z,97618.58
2023-04-01T08:47:56.519Z,97623.79
2023-04-01T08:58:30.497Z,97621.53
2023-04-01T09:08:52.085Z,97622.05
2023-04-01T09:19:21.351Z,97625.11
2023-04-01T09:29:43.276Z,97622.86
2023-04-01T09:40:03.645Z,97627.75
2023-04-01T09:50:30.858Z,97630.50
2023-04-01T10:01:04.293Z,97627.27
2023-04-01T10:11:26.199Z,97630.79
2023-04-01T10:22:09.148Z,97643.02
2023-04-01T10:32:51.027Z,97642.02
2023-04-01T10:43:39.319Z,97645.42
2023-04-01T10:54:03.605Z,97650.17
2023-04-01T11:04:48.790Z,97650.38
2023-04-01T11:15:33.529Z,97662.52
2023-04-01T11:26:05.829Z,97671.85
2023-04-01T11:36:27.577Z,97679.14
2023-04-01T11:46:42.595Z,97681.73
2023-04-01T11:57:08.403Z,97684.15
2023-04-01T12:07:25.190Z,97692.40
2023-04-01T12:17:43.452Z,97693.19
2023-04-01T12:28:03.617Z,97703.73
2023-04-01T12:38:22.969Z,97710.17
2023-04-01T12:49:10.559Z,97720.30
2023-04-01T12:59:33.685Z,97725.27
2023-04-01T13:09:52.064Z,97737.61
2023-04-01T13:20:09.052Z,97745.34
2023-04-01T13:30:29.927Z,97760.22
2023-04-01T13:40:55.722Z,97775.38
2023-04-01T13:51:21.195Z,97789.91
2023-04-01T14:01:36.418Z,97797.95
2023-04-01T14:11:49.107Z,97807.20
2023-04-01T14:22:07.864Z,97818.77
2023-04-01T14:32:44.005Z,97823.32
2023-04-01T14:43:11.442Z,97840.92
2023-04-01T14:53:31.375Z,97856.23
2023-04-01T15:03:42.700Z,97873.14
2023-04-01T15:14:24.399Z,97887.50
2023-04-01T15:24:43.301Z,97903.31
2023-04-01T15:35:01.381Z,97919.05
2023-04-01T15:45:20.215Z,97930.23
2023-04-01T15:55:30.762Z,97945.66
2023-04-01T16:05:45.088Z,97957.28
2023-04-01T16:16:02.175Z,97984.64
2023-04-01T16:26:15.572Z,97999.50
2023-04-01T16:36:30.516Z,98012.12
2023-04-01T16:46:40.082Z,98022.98
2023-04-01T16:56:52.512Z,98045.44
2023-04-01T17:07:08.332Z,98067.38
2023-04-01T17:17:26.557Z,98082.38
2023-04-01T17:27:45.553Z,98093.05
2023-04-01T17:38:02.273Z,98114.48
2023-04-01T17:48:17.558Z,98126.42
2023-04-01T17:58:30.594Z,98141.87
2023-04-01T18:08:52.298Z,98161.52
2023-04-01T18:19:04.934Z,98175.33
2023-04-01T18:29:26.186Z,98184.97
2023-04-01T18:39:39.245Z,98200.02
2023-04-01T18:49:54.315Z,98219.60
2023-04-01T19:00:06.738Z,98234.88
2023-04-01T19:10:21.768Z,98243.65
2023-04-01T19:20:33.548Z,98254.52
2023-04-01T19:30:52.154Z,98264.60
2023-04-01T19:41:06.678Z,98281.07
2023-04-01T19:51:17.935Z,98297.92
2023-04-01T20:01:41.639Z,98307.50
2023-04-01T20:11:58.182Z,98316.60
2023-04-01T20:22:07.565Z,98325.80
2023-04-01T20:32:27.335Z,98339.64
2023-04-01T20:42:53.622Z,98343.31
2023-04-01T20:53:07.551Z,98352.93
2023-04-01T21:03:26.328Z,98363.47
2023-04-01T21:13:48.882Z,98370.73
2023-04-01T21:24:07.184Z,98388.15
2023-04-01T21:34:37.987Z,98395.29
2023-04-01T21:44:52.894Z,98405.52
2023-04-01T21:55:26.480Z,98416.16
2023-04-01T22:05:37.805Z,98427.02
2023-04-01T22:16:02.566Z,98429.71
2023-04-01T22:26:17.396Z,98436.55
2023-04-01T22:36:33.198Z,98440.98
2023-04-01T22:46:55.435Z,98453.63
2023-04-01T22:57:05.672Z,98464.82
2023-04-01T23:07:48.056Z,98478.63
2023-04-01T23:18:05.719Z,98491.33
2023-04-01T23:28:38.329Z,98513.10
2023-04-01T23:38:49.834Z,98521.39
2023-04-01T23:48:56.402Z,98520.55
2023-04-01T23:59:04.175Z,98530.14
